sensor_id;sensor_type;location;lat;lon;timestamp;pressure;altitude;pressure_sealevel;temperature;humidity
59391;BME280;53405;57.012;40.984;2023-12-28T00:00:21;98939.41;;;-3.45;85.98
59391;BME280;53405;57.012;40.984;2023-12-28T00:02:48;98953.88;;;-3.55;86.28
59391;BME280;53405;57.012;40.984;2023-12-28T00:05:16;98947.09;;;-3.56;86.08
59391;BME280;53405;57.012;40.984;2023-12-28T00:07:44;98947.03;;;-3.32;85.52
59391;BME280;53405;57.012;40.984;2023-12-28T00:10:11;98946.59;;;-3.03;85.15
59391;BME280;53405;57.012;40.984;2023-12-28T00:12:39;98951.75;;;-3.26;85.67
59391;BME280;53405;57.012;40.984;2023-12-28T00:15:07;98906.97;;;-3.70;85.25
59391;BME280;53405;57.012;40.984;2023-12-28T00:17:35;98957.22;;;-3.31;85.34
59391;BME280;53405;57.012;40.984;2023-12-28T00:20:03;98962.25;;;-3.29;86.23
59391;BME280;53405;57.012;40.984;2023-12-28T00:22:31;98963.41;;;-3.33;85.70
59391;BME280;53405;57.012;40.984;2023-12-28T00:24:59;98931.59;;;-3.79;86.05
59391;BME280;53405;57.012;40.984;2023-12-28T00:27:27;98960.69;;;-3.54;86.24
59391;BME280;53405;57.012;40.984;2023-12-28T00:29:54;98968.09;;;-3.38;87.17
59391;BME280;53405;57.012;40.984;2023-12-28T00:32:22;98972.03;;;-3.46;87.96
59391;BME280;53405;57.012;40.984;2023-12-28T00:34:50;98914.22;;;-3.64;86.79
59391;BME280;53405;57.012;40.984;2023-12-28T00:37:17;98964.81;;;-3.40;85.60
59391;BME280;53405;57.012;40.984;2023-12-28T00:39:46;98976.75;;;-3.28;86.77
59391;BME280;53405;57.012;40.984;2023-12-28T00:42:14;98971.94;;;-3.33;86.37
59391;BME280;53405;57.012;40.984;2023-12-28T00:44:42;98973.38;;;-3.17;85.98
59391;BME280;53405;57.012;40.984;2023-12-28T00:47:10;98975.50;;;-3.22;85.45
59391;BME280;53405;57.012;40.984;2023-12-28T00:49:38;99002.72;;;-3.42;87.01
59391;BME280;53405;57.012;40.984;2023-12-28T00:52:06;98988.69;;;-3.38;85.82
59391;BME280;53405;57.012;40.984;2023-12-28T00:54:35;98998.13;;;-3.50;86.22
59391;BME280;53405;57.012;40.984;2023-12-28T00:57:04;98995.97;;;-3.68;87.63
59391;BME280;53405;57.012;40.984;2023-12-28T00:59:32;98987.69;;;-3.60;88.08
59391;BME280;53405;57.012;40.984;2023-12-28T01:02:00;98958.19;;;-3.67;87.18
59391;BME280;53405;57.012;40.984;2023-12-28T01:04:27;99005.97;;;-3.52;87.26
59391;BME280;53405;57.012;40.984;2023-12-28T01:06:55;99008.13;;;-3.34;85.95
59391;BME280;53405;57.012;40.984;2023-12-28T01:09:23;99011.41;;;-3.43;86.41
59391;BME280;53405;57.012;40.984;2023-12-28T01:11:50;99016.38;;;-3.53;86.99
59391;BME280;53405;57.012;40.984;2023-12-28T01:14:18;99010.00;;;-3.25;85.10
59391;BME280;53405;57.012;40.984;2023-12-28T01:16:46;99008.28;;;-3.24;84.97
59391;BME280;53405;57.012;40.984;2023-12-28T01:19:15;98996.91;;;-3.33;82.54
59391;BME280;53405;57.012;40.984;2023-12-28T01:21:43;99029.56;;;-3.34;83.58
59391;BME280;53405;57.012;40.984;2023-12-28T01:24:10;99024.78;;;-3.63;83.91
59391;BME280;53405;57.012;40.984;2023-12-28T01:26:38;99026.69;;;-3.77;84.05
59391;BME280;53405;57.012;40.984;2023-12-28T01:29:06;99028.56;;;-3.79;85.45
59391;BME280;53405;57.012;40.984;2023-12-28T01:31:33;99031.91;;;-3.90;85.63
59391;BME280;53405;57.012;40.984;2023-12-28T01:34:01;99033.81;;;-3.81;85.60
59391;BME280;53405;57.012;40.984;2023-12-28T01:36:29;99041.59;;;-3.94;86.96
59391;BME280;53405;57.012;40.984;2023-12-28T01:38:59;99032.66;;;-3.77;86.49
59391;BME280;53405;57.012;40.984;2023-12-28T01:41:27;99041.00;;;-3.73;84.95
59391;BME280;53405;57.012;40.984;2023-12-28T01:43:54;99024.41;;;-3.93;84.38
59391;BME280;53405;57.012;40.984;2023-12-28T01:46:22;99034.78;;;-3.95;85.25
59391;BME280;53405;57.012;40.984;2023-12-28T01:48:50;99058.84;;;-3.83;85.26
59391;BME280;53405;57.012;40.984;2023-12-28T01:51:20;99051.31;;;-4.10;84.89
59391;BME280;53405;57.012;40.984;2023-12-28T01:53:48;99061.44;;;-3.96;84.48
59391;BME280;53405;57.012;40.984;2023-12-28T01:56:18;99068.00;;;-4.16;84.40
59391;BME280;53405;57.012;40.984;2023-12-28T01:58:48;99062.34;;;-4.34;84.31
59391;BME280;53405;57.012;40.984;2023-12-28T02:01:17;99064.59;;;-4.17;84.44
59391;BME280;53405;57.012;40.984;2023-12-28T02:03:45;99063.19;;;-4.33;84.84
59391;BME280;53405;57.012;40.984;2023-12-28T02:06:14;99056.72;;;-4.39;83.13
59391;BME280;53405;57.012;40.984;2023-12-28T02:08:46;99060.84;;;-4.49;84.81
59391;BME280;53405;57.012;40.984;2023-12-28T02:11:14;99046.88;;;-4.71;85.97
59391;BME280;53405;57.012;40.984;2023-12-28T02:13:43;99077.09;;;-4.49;85.32
59391;BME280;53405;57.012;40.984;2023-12-28T02:16:38;99055.38;;;-4.45;86.62
59391;BME280;53405;57.012;40.984;2023-12-28T02:19:19;99075.72;;;-4.16;84.09
59391;BME280;53405;57.012;40.984;2023-12-28T02:21:54;99082.47;;;-4.15;83.85
59391;BME280;53405;57.012;40.984;2023-12-28T02:24:22;99057.25;;;-4.47;85.14
59391;BME280;53405;57.012;40.984;2023-12-28T02:26:50;99036.56;;;-4.45;84.65
59391;BME280;53405;57.012;40.984;2023-12-28T02:29:18;99086.41;;;-4.22;83.57
59391;BME280;53405;57.012;40.984;2023-12-28T02:31:51;99100.78;;;-4.20;84.63
59391;BME280;53405;57.012;40.984;2023-12-28T02:34:29;99085.59;;;-4.36;84.47
59391;BME280;53405;57.012;40.984;2023-12-28T02:37:01;99096.72;;;-4.48;85.51
59391;BME280;53405;57.012;40.984;2023-12-28T02:39:29;99091.22;;;-4.05;85.29
59391;BME280;53405;57.012;40.984;2023-12-28T02:41:58;99082.91;;;-4.08;83.21
59391;BME280;53405;57.012;40.984;2023-12-28T02:44:26;99095.56;;;-3.81;83.54
59391;BME280;53405;57.012;40.984;2023-12-28T02:46:53;99107.94;;;-3.99;84.04
59391;BME280;53405;57.012;40.984;2023-12-28T02:49:22;99096.56;;;-4.08;83.71
59391;BME280;53405;57.012;40.984;2023-12-28T02:51:50;99103.91;;;-4.14;85.21
59391;BME280;53405;57.012;40.984;2023-12-28T02:54:18;99098.81;;;-4.03;83.66
59391;BME280;53405;57.012;40.984;2023-12-28T02:56:46;99085.56;;;-4.23;84.31
59391;BME280;53405;57.012;40.984;2023-12-28T02:59:14;99114.00;;;-3.87;82.98
59391;BME280;53405;57.012;40.984;2023-12-28T03:01:41;99114.81;;;-4.37;84.32
59391;BME280;53405;57.012;40.984;2023-12-28T03:04:09;99103.88;;;-4.27;84.79
59391;BME280;53405;57.012;40.984;2023-12-28T03:06:37;99065.97;;;-4.49;85.01
59391;BME280;53405;57.012;40.984;2023-12-28T03:09:07;99110.56;;;-4.12;85.30
59391;BME280;53405;57.012;40.984;2023-12-28T03:11:34;99124.16;;;-4.23;85.22
59391;BME280;53405;57.012;40.984;2023-12-28T03:14:02;99055.81;;;-4.64;83.97
59391;BME280;53405;57.012;40.984;2023-12-28T03:16:30;99118.50;;;-4.41;85.32
59391;BME280;53405;57.012;40.984;2023-12-28T03:19:01;99124.25;;;-4.37;85.47
59391;BME280;53405;57.012;40.984;2023-12-28T03:21:29;99130.53;;;-4.28;83.90
59391;BME280;53405;57.012;40.984;2023-12-28T03:23:57;99127.25;;;-4.43;84.94
59391;BME280;53405;57.012;40.984;2023-12-28T03:26:24;99133.44;;;-4.33;83.67
59391;BME280;53405;57.012;40.984;2023-12-28T03:28:52;99108.44;;;-4.69;85.31
59391;BME280;53405;57.012;40.984;2023-12-28T03:31:20;99127.44;;;-4.46;85.05
59391;BME280;53405;57.012;40.984;2023-12-28T03:33:48;99143.41;;;-4.28;86.04
59391;BME280;53405;57.012;40.984;2023-12-28T03:36:19;99147.06;;;-3.94;83.03
59391;BME280;53405;57.012;40.984;2023-12-28T03:38:47;99145.13;;;-4.29;83.15
59391;BME280;53405;57.012;40.984;2023-12-28T03:41:18;99149.06;;;-4.49;84.14
59391;BME280;53405;57.012;40.984;2023-12-28T03:43:47;99156.47;;;-4.44;84.86
59391;BME280;53405;57.012;40.984;2023-12-28T03:46:15;99140.72;;;-4.53;84.72
59391;BME280;53405;57.012;40.984;2023-12-28T03:48:43;99151.31;;;-4.44;84.73
59391;BME280;53405;57.012;40.984;2023-12-28T03:51:14;99114.19;;;-4.66;83.95
59391;BME280;53405;57.012;40.984;2023-12-28T03:53:43;99158.72;;;-4.27;83.88
59391;BME280;53405;57.012;40.984;2023-12-28T03:56:24;99156.34;;;-4.17;83.93
59391;BME280;53405;57.012;40.984;2023-12-28T03:58:54;99157.66;;;-3.98;83.95
59391;BME280;53405;57.012;40.984;2023-12-28T04:01:23;99134.75;;;-4.14;83.33
59391;BME280;53405;57.012;40.984;2023-12-28T04:03:51;99155.91;;;-3.98;83.27
59391;BME280;53405;57.012;40.984;2023-12-28T04:06:19;99142.03;;;-3.95;82.35
59391;BME280;53405;57.012;40.984;2023-12-28T04:08:47;99165.59;;;-4.02;82.74
59391;BME280;53405;57.012;40.984;2023-12-28T04:11:14;99160.06;;;-4.08;81.56
59391;BME280;53405;57.012;40.984;2023-12-28T04:13:42;99142.16;;;-4.36;83.84
59391;BME280;53405;57.012;40.984;2023-12-28T04:16:14;99075.66;;;-4.53;82.83
59391;BME280;53405;57.012;40.984;2023-12-28T04:18:42;99147.59;;;-4.40;82.71
59391;BME280;53405;57.012;40.984;2023-12-28T04:21:11;99158.50;;;-4.49;83.24
59391;BME280;53405;57.012;40.984;2023-12-28T04:23:41;99170.53;;;-4.37;84.14
59391;BME280;53405;57.012;40.984;2023-12-28T04:26:09;99173.50;;;-4.69;83.59
59391;BME280;53405;57.012;40.984;2023-12-28T04:28:38;99063.75;;;-5.46;83.23
59391;BME280;53405;57.012;40.984;2023-12-28T04:31:07;99170.94;;;-4.56;84.09
59391;BME280;53405;57.012;40.984;2023-12-28T04:33:35;99179.09;;;-5.02;83.89
59391;BME280;53405;57.012;40.984;2023-12-28T04:36:04;99175.72;;;-4.90;85.26
59391;BME280;53405;57.012;40.984;2023-12-28T04:38:35;99180.03;;;-4.91;84.63
59391;BME280;53405;57.012;40.984;2023-12-28T04:41:03;99182.59;;;-4.91;85.98
59391;BME280;53405;57.012;40.984;2023-12-28T04:43:31;99173.97;;;-4.90;84.87
59391;BME280;53405;57.012;40.984;2023-12-28T04:46:03;99184.97;;;-4.87;85.43
59391;BME280;53405;57.012;40.984;2023-12-28T04:48:32;99140.19;;;-5.23;85.38
59391;BME280;53405;57.012;40.984;2023-12-28T04:51:02;99145.84;;;-5.46;85.57
59391;BME280;53405;57.012;40.984;2023-12-28T04:53:30;99200.94;;;-5.10;85.33
59391;BME280;53405;57.012;40.984;2023-12-28T04:55:58;99202.78;;;-5.12;85.40
59391;BME280;53405;57.012;40.984;2023-12-28T04:58:26;99204.59;;;-4.86;85.66
59391;BME280;53405;57.012;40.984;2023-12-28T05:00:54;99193.69;;;-5.03;85.96
59391;BME280;53405;57.012;40.984;2023-12-28T05:03:22;99146.47;;;-5.28;86.05
59391;BME280;53405;57.012;40.984;2023-12-28T05:05:49;99202.06;;;-5.14;85.86
59391;BME280;53405;57.012;40.984;2023-12-28T05:08:17;99199.25;;;-4.96;85.66
59391;BME280;53405;57.012;40.984;2023-12-28T05:10:45;99199.97;;;-4.94;85.56
59391;BME280;53405;57.012;40.984;2023-12-28T05:13:13;99199.97;;;-5.21;84.63
59391;BME280;53405;57.012;40.984;2023-12-28T05:15:40;99207.53;;;-5.33;85.61
59391;BME280;53405;57.012;40.984;2023-12-28T05:18:09;99206.63;;;-5.46;86.14
59391;BME280;53405;57.012;40.984;2023-12-28T05:20:37;99193.28;;;-5.51;87.16
59391;BME280;53405;57.012;40.984;2023-12-28T05:23:04;99157.84;;;-5.73;87.66
59391;BME280;53405;57.012;40.984;2023-12-28T05:25:32;99213.56;;;-5.06;87.47
59391;BME280;53405;57.012;40.984;2023-12-28T05:27:59;99215.47;;;-4.96;87.07
59391;BME280;53405;57.012;40.984;2023-12-28T05:30:29;99206.84;;;-5.22;86.40
59391;BME280;53405;57.012;40.984;2023-12-28T05:32:56;99215.09;;;-5.17;87.30
59391;BME280;53405;57.012;40.984;2023-12-28T05:35:24;99172.84;;;-5.26;87.17
59391;BME280;53405;57.012;40.984;2023-12-28T05:37:52;99211.03;;;-4.94;86.43
59391;BME280;53405;57.012;40.984;2023-12-28T05:40:20;99229.31;;;-4.98;85.86
59391;BME280;53405;57.012;40.984;2023-12-28T05:42:47;99204.72;;;-5.15;84.74
59391;BME280;53405;57.012;40.984;2023-12-28T05:45:15;99215.91;;;-5.16;86.75
59391;BME280;53405;57.012;40.984;2023-12-28T05:47:42;99219.97;;;-4.99;86.35
59391;BME280;53405;57.012;40.984;2023-12-28T05:50:10;99222.75;;;-5.02;85.08
59391;BME280;53405;57.012;40.984;2023-12-28T05:52:38;99230.22;;;-4.72;87.19
59391;BME280;53405;57.012;40.984;2023-12-28T05:55:06;99223.53;;;-4.75;86.06
59391;BME280;53405;57.012;40.984;2023-12-28T05:57:34;99232.75;;;-4.85;85.75
59391;BME280;53405;57.012;40.984;2023-12-28T06:00:01;99246.47;;;-4.99;86.32
59391;BME280;53405;57.012;40.984;2023-12-28T06:02:38;99234.56;;;-4.73;85.92
59391;BME280;53405;57.012;40.984;2023-12-28T06:05:06;99230.84;;;-4.68;85.87
59391;BME280;53405;57.012;40.984;2023-12-28T06:07:34;99252.19;;;-4.41;85.32
59391;BME280;53405;57.012;40.984;2023-12-28T06:10:03;99229.97;;;-4.95;86.31
59391;BME280;53405;57.012;40.984;2023-12-28T06:12:31;99213.16;;;-5.13;86.46
59391;BME280;53405;57.012;40.984;2023-12-28T06:14:59;99268.06;;;-4.74;87.30
59391;BME280;53405;57.012;40.984;2023-12-28T06:17:26;99239.03;;;-4.76;84.71
59391;BME280;53405;57.012;40.984;2023-12-28T06:19:54;99217.91;;;-5.07;84.93
59391;BME280;53405;57.012;40.984;2023-12-28T06:22:22;99259.50;;;-5.02;85.32
59391;BME280;53405;57.012;40.984;2023-12-28T06:24:54;99266.59;;;-4.78;86.05
59391;BME280;53405;57.012;40.984;2023-12-28T06:27:22;99232.81;;;-4.99;84.85
59391;BME280;53405;57.012;40.984;2023-12-28T06:29:53;99276.84;;;-4.51;84.14
59391;BME280;53405;57.012;40.984;2023-12-28T06:32:21;99285.69;;;-4.55;82.58
59391;BME280;53405;57.012;40.984;2023-12-28T06:34:51;99285.94;;;-4.73;85.20
59391;BME280;53405;57.012;40.984;2023-12-28T06:37:18;99291.06;;;-5.00;83.46
59391;BME280;53405;57.012;40.984;2023-12-28T06:39:46;99289.28;;;-5.12;84.51
59391;BME280;53405;57.012;40.984;2023-12-28T06:42:15;99294.63;;;-5.30;86.58
59391;BME280;53405;57.012;40.984;2023-12-28T06:44:42;99303.94;;;-5.14;85.30
59391;BME280;53405;57.012;40.984;2023-12-28T06:47:10;99286.56;;;-4.96;86.16
59391;BME280;53405;57.012;40.984;2023-12-28T06:49:37;99283.56;;;-5.03;85.26
59391;BME280;53405;57.012;40.984;2023-12-28T06:52:05;99288.00;;;-4.92;84.17
59391;BME280;53405;57.012;40.984;2023-12-28T06:54:33;99294.56;;;-5.01;86.05
59391;BME280;53405;57.012;40.984;2023-12-28T06:57:02;99299.78;;;-4.75;84.53
59391;BME280;53405;57.012;40.984;2023-12-28T06:59:30;99299.03;;;-4.90;85.25
59391;BME280;53405;57.012;40.984;2023-12-28T07:01:58;99266.88;;;-5.10;86.39
59391;BME280;53405;57.012;40.984;2023-12-28T07:04:25;99297.94;;;-4.73;85.08
59391;BME280;53405;57.012;40.984;2023-12-28T07:06:56;99300.59;;;-4.75;84.18
59391;BME280;53405;57.012;40.984;2023-12-28T07:09:24;99309.44;;;-4.79;85.62
59391;BME280;53405;57.012;40.984;2023-12-28T07:11:52;99311.59;;;-4.85;86.43
59391;BME280;53405;57.012;40.984;2023-12-28T07:14:20;99316.53;;;-4.97;86.89
59391;BME280;53405;57.012;40.984;2023-12-28T07:16:47;99311.91;;;-4.77;86.20
59391;BME280;53405;57.012;40.984;2023-12-28T07:19:15;99318.59;;;-4.75;84.55
59391;BME280;53405;57.012;40.984;2023-12-28T07:21:43;99321.41;;;-4.92;84.52
59391;BME280;53405;57.012;40.984;2023-12-28T07:24:10;99328.47;;;-4.96;84.34
59391;BME280;53405;57.012;40.984;2023-12-28T07:26:38;99328.16;;;-4.77;85.83
59391;BME280;53405;57.012;40.984;2023-12-28T07:29:06;99335.47;;;-4.98;85.68
59391;BME280;53405;57.012;40.984;2023-12-28T07:31:33;99338.03;;;-4.98;86.77
59391;BME280;53405;57.012;40.984;2023-12-28T07:34:07;99332.91;;;-4.98;86.14
59391;BME280;53405;57.012;40.984;2023-12-28T07:36:36;99338.97;;;-4.72;86.76
59391;BME280;53405;57.012;40.984;2023-12-28T07:39:05;99337.19;;;-4.57;85.37
59391;BME280;53405;57.012;40.984;2023-12-28T07:41:33;99327.88;;;-4.72;84.85
59391;BME280;53405;57.012;40.984;2023-12-28T07:44:03;99332.13;;;-4.85;84.33
59391;BME280;53405;57.012;40.984;2023-12-28T07:46:31;99347.47;;;-4.57;85.53
59391;BME280;53405;57.012;40.984;2023-12-28T07:49:04;99323.91;;;-4.63;84.19
59391;BME280;53405;57.012;40.984;2023-12-28T07:51:32;99346.00;;;-4.61;84.89
59391;BME280;53405;57.012;40.984;2023-12-28T07:54:06;99344.47;;;-4.63;83.67
59391;BME280;53405;57.012;40.984;2023-12-28T07:56:33;99296.06;;;-4.84;84.65
59391;BME280;53405;57.012;40.984;2023-12-28T07:59:09;99340.41;;;-4.67;84.35
59391;BME280;53405;57.012;40.984;2023-12-28T08:01:37;99316.13;;;-4.76;83.87
59391;BME280;53405;57.012;40.984;2023-12-28T08:04:05;99341.09;;;-4.78;83.92
59391;BME280;53405;57.012;40.984;2023-12-28T08:06:33;99347.88;;;-4.77;83.15
59391;BME280;53405;57.012;40.984;2023-12-28T08:09:02;99297.09;;;-4.86;82.94
59391;BME280;53405;57.012;40.984;2023-12-28T08:11:30;99347.78;;;-4.48;84.37
59391;BME280;53405;57.012;40.984;2023-12-28T08:13:58;99340.41;;;-4.40;82.70
59391;BME280;53405;57.012;40.984;2023-12-28T08:16:30;99335.66;;;-4.46;82.60
59391;BME280;53405;57.012;40.984;2023-12-28T08:18:58;99309.44;;;-4.51;83.83
59391;BME280;53405;57.012;40.984;2023-12-28T08:21:30;99301.44;;;-4.47;83.03
59391;BME280;53405;57.012;40.984;2023-12-28T08:23:58;99339.16;;;-4.47;82.74
59391;BME280;53405;57.012;40.984;2023-12-28T08:26:31;99325.53;;;-4.62;84.48
59391;BME280;53405;57.012;40.984;2023-12-28T08:29:05;99334.50;;;-4.55;83.40
59391;BME280;53405;57.012;40.984;2023-12-28T08:31:33;99292.97;;;-4.62;84.85
59391;BME280;53405;57.012;40.984;2023-12-28T08:34:25;99336.72;;;-4.36;83.63
59391;BME280;53405;57.012;40.984;2023-12-28T08:36:54;99327.03;;;-4.45;82.72
59391;BME280;53405;57.012;40.984;2023-12-28T08:39:21;99335.38;;;-4.42;82.71
59391;BME280;53405;57.012;40.984;2023-12-28T08:41:49;99330.50;;;-4.46;83.47
59391;BME280;53405;57.012;40.984;2023-12-28T08:44:17;99323.06;;;-4.37;84.02
59391;BME280;53405;57.012;40.984;2023-12-28T08:46:44;99317.72;;;-4.61;84.24
59391;BME280;53405;57.012;40.984;2023-12-28T08:49:13;99327.41;;;-4.51;84.47
59391;BME280;53405;57.012;40.984;2023-12-28T08:51:43;99335.84;;;-4.49;85.47
59391;BME280;53405;57.012;40.984;2023-12-28T08:54:11;99329.16;;;-4.25;86.14
59391;BME280;53405;57.012;40.984;2023-12-28T08:56:38;99321.31;;;-4.23;83.22
59391;BME280;53405;57.012;40.984;2023-12-28T08:59:06;99319.16;;;-4.17;84.80
59391;BME280;53405;57.012;40.984;2023-12-28T09:01:34;99326.53;;;-3.85;82.30
59391;BME280;53405;57.012;40.984;2023-12-28T09:04:02;99299.41;;;-4.29;82.98
59391;BME280;53405;57.012;40.984;2023-12-28T09:06:30;99314.38;;;-3.83;80.84
59391;BME280;53405;57.012;40.984;2023-12-28T09:08:58;99346.56;;;-3.90;82.13
59391;BME280;53405;57.012;40.984;2023-12-28T09:11:25;99355.25;;;-3.91;82.68
59391;BME280;53405;57.012;40.984;2023-12-28T09:13:54;99314.97;;;-4.18;83.10
59391;BME280;53405;57.012;40.984;2023-12-28T09:16:22;99351.31;;;-3.96;84.25
59391;BME280;53405;57.012;40.984;2023-12-28T09:18:51;99347.09;;;-3.97;84.66
59391;BME280;53405;57.012;40.984;2023-12-28T09:21:19;99360.78;;;-3.97;82.31
59391;BME280;53405;57.012;40.984;2023-12-28T09:23:48;99356.34;;;-3.95;82.94
59391;BME280;53405;57.012;40.984;2023-12-28T09:26:15;99305.59;;;-4.19;82.35
59391;BME280;53405;57.012;40.984;2023-12-28T09:28:43;99367.47;;;-3.94;83.69
59391;BME280;53405;57.012;40.984;2023-12-28T09:31:11;99357.66;;;-4.15;83.88
59391;BME280;53405;57.012;40.984;2023-12-28T09:33:39;99352.22;;;-4.10;85.00
59391;BME280;53405;57.012;40.984;2023-12-28T09:36:07;99357.56;;;-4.01;85.04
59391;BME280;53405;57.012;40.984;2023-12-28T09:38:36;99353.97;;;-4.11;84.89
59391;BME280;53405;57.012;40.984;2023-12-28T09:41:12;99363.06;;;-3.79;84.27
59391;BME280;53405;57.012;40.984;2023-12-28T09:43:55;99357.09;;;-3.80;82.06
59391;BME280;53405;57.012;40.984;2023-12-28T09:46:26;99367.94;;;-4.15;83.44
59391;BME280;53405;57.012;40.984;2023-12-28T09:48:56;99364.69;;;-3.91;83.85
59391;BME280;53405;57.012;40.984;2023-12-28T09:51:27;99366.34;;;-3.90;83.91
59391;BME280;53405;57.012;40.984;2023-12-28T09:53:56;99358.50;;;-4.14;84.03
59391;BME280;53405;57.012;40.984;2023-12-28T09:56:24;99368.88;;;-4.16;84.45
59391;BME280;53405;57.012;40.984;2023-12-28T09:58:57;99350.09;;;-4.31;84.80
59391;BME280;53405;57.012;40.984;2023-12-28T10:01:26;99348.69;;;-4.22;85.44
59391;BME280;53405;57.012;40.984;2023-12-28T10:03:54;99365.75;;;-3.81;83.97
59391;BME280;53405;57.012;40.984;2023-12-28T10:06:22;99361.47;;;-4.08;84.90
59391;BME280;53405;57.012;40.984;2023-12-28T10:08:50;99362.06;;;-4.17;85.26
59391;BME280;53405;57.012;40.984;2023-12-28T10:11:18;99370.78;;;-4.32;84.89
59391;BME280;53405;57.012;40.984;2023-12-28T10:13:48;99378.53;;;-4.20;84.82
59391;BME280;53405;57.012;40.984;2023-12-28T10:16:16;99345.91;;;-4.32;85.23
59391;BME280;53405;57.012;40.984;2023-12-28T10:18:44;99375.44;;;-3.85;85.78
59391;BME280;53405;57.012;40.984;2023-12-28T10:21:12;99374.38;;;-3.95;85.85
59391;BME280;53405;57.012;40.984;2023-12-28T10:23:40;99379.53;;;-3.82;83.21
59391;BME280;53405;57.012;40.984;2023-12-28T10:26:08;99387.34;;;-3.96;84.82
59391;BME280;53405;57.012;40.984;2023-12-28T10:28:37;99384.38;;;-3.77;83.79
59391;BME280;53405;57.012;40.984;2023-12-28T10:31:07;99376.84;;;-3.68;83.31
59391;BME280;53405;57.012;40.984;2023-12-28T10:33:37;99377.03;;;-3.96;83.13
59391;BME280;53405;57.012;40.984;2023-12-28T10:36:07;99387.09;;;-4.06;84.73
59391;BME280;53405;57.012;40.984;2023-12-28T10:38:36;99395.56;;;-3.91;83.93
59391;BME280;53405;57.012;40.984;2023-12-28T10:41:06;99397.78;;;-4.12;84.31
59391;BME280;53405;57.012;40.984;2023-12-28T10:43:46;99395.16;;;-3.98;83.83
59391;BME280;53405;57.012;40.984;2023-12-28T10:46:27;99399.09;;;-3.67;83.17
59391;BME280;53405;57.012;40.984;2023-12-28T10:49:01;99402.75;;;-4.09;84.09
59391;BME280;53405;57.012;40.984;2023-12-28T10:51:34;99362.97;;;-4.31;84.45
59391;BME280;53405;57.012;40.984;2023-12-28T10:56:44;99402.81;;;-3.71;83.67
59391;BME280;53405;57.012;40.984;2023-12-28T11:01:49;99399.03;;;-4.05;84.59
59391;BME280;53405;57.012;40.984;2023-12-28T11:04:46;99391.56;;;-3.95;84.86
59391;BME280;53405;57.012;40.984;2023-12-28T11:07:18;99394.84;;;-3.93;84.83
59391;BME280;53405;57.012;40.984;2023-12-28T11:09:46;99379.69;;;-4.11;83.45
59391;BME280;53405;57.012;40.984;2023-12-28T11:12:16;99398.13;;;-4.04;85.03
59391;BME280;53405;57.012;40.984;2023-12-28T11:14:48;99403.19;;;-3.77;85.38
59391;BME280;53405;57.012;40.984;2023-12-28T11:17:19;99391.09;;;-3.49;82.37
59391;BME280;53405;57.012;40.984;2023-12-28T11:19:48;99395.94;;;-3.70;81.96
59391;BME280;53405;57.012;40.984;2023-12-28T11:22:17;99393.09;;;-3.80;83.92
59391;BME280;53405;57.012;40.984;2023-12-28T11:24:44;99393.28;;;-3.96;83.45
59391;BME280;53405;57.012;40.984;2023-12-28T11:27:12;99395.16;;;-3.98;84.26
59391;BME280;53405;57.012;40.984;2023-12-28T11:29:43;99403.09;;;-3.88;85.91
59391;BME280;53405;57.012;40.984;2023-12-28T11:32:13;99396.72;;;-3.83;84.59
59391;BME280;53405;57.012;40.984;2023-12-28T11:34:41;99359.94;;;-4.10;84.69
59391;BME280;53405;57.012;40.984;2023-12-28T11:37:14;99402.81;;;-3.71;82.98
59391;BME280;53405;57.012;40.984;2023-12-28T11:39:49;99401.78;;;-3.68;83.23
59391;BME280;53405;57.012;40.984;2023-12-28T11:42:20;99402.47;;;-3.92;84.23
59391;BME280;53405;57.012;40.984;2023-12-28T11:44:54;99411.94;;;-3.92;83.92
59391;BME280;53405;57.012;40.984;2023-12-28T11:47:25;99416.75;;;-4.01;85.85
59391;BME280;53405;57.012;40.984;2023-12-28T11:49:54;99410.03;;;-4.16;85.65
59391;BME280;53405;57.012;40.984;2023-12-28T11:52:30;99405.69;;;-4.15;86.31
59391;BME280;53405;57.012;40.984;2023-12-28T11:54:59;99395.69;;;-3.80;86.48
59391;BME280;53405;57.012;40.984;2023-12-28T11:57:30;99411.75;;;-3.89;85.17
59391;BME280;53405;57.012;40.984;2023-12-28T12:00:00;99391.84;;;-4.13;86.26
59391;BME280;53405;57.012;40.984;2023-12-28T12:02:31;99411.59;;;-4.01;85.87
59391;BME280;53405;57.012;40.984;2023-12-28T12:04:59;99413.09;;;-3.71;86.43
59391;BME280;53405;57.012;40.984;2023-12-28T12:07:30;99422.47;;;-3.70;84.57
59391;BME280;53405;57.012;40.984;2023-12-28T12:09:59;99373.00;;;-4.01;84.70
59391;BME280;53405;57.012;40.984;2023-12-28T12:12:31;99414.97;;;-3.60;83.66
59391;BME280;53405;57.012;40.984;2023-12-28T12:14:59;99412.09;;;-3.30;82.91
59391;BME280;53405;57.012;40.984;2023-12-28T12:17:30;99412.41;;;-3.47;81.38
59391;BME280;53405;57.012;40.984;2023-12-28T12:19:58;99414.25;;;-3.49;82.59
59391;BME280;53405;57.012;40.984;2023-12-28T12:22:25;99413.53;;;-3.25;82.97
59391;BME280;53405;57.012;40.984;2023-12-28T12:24:57;99416.22;;;-3.40;82.26
59391;BME280;53405;57.012;40.984;2023-12-28T12:27:29;99424.66;;;-3.51;82.08
59391;BME280;53405;57.012;40.984;2023-12-28T12:29:57;99420.13;;;-3.34;82.09
59391;BME280;53405;57.012;40.984;2023-12-28T12:32:26;99417.31;;;-3.70;82.54
59391;BME280;53405;57.012;40.984;2023-12-28T12:34:54;99423.00;;;-3.65;81.08
59391;BME280;53405;57.012;40.984;2023-12-28T12:37:23;99415.94;;;-3.88;82.79
59391;BME280;53405;57.012;40.984;2023-12-28T12:39:51;99417.44;;;-3.58;82.54
59391;BME280;53405;57.012;40.984;2023-12-28T12:42:18;99414.66;;;-3.55;82.16
59391;BME280;53405;57.012;40.984;2023-12-28T12:44:46;99411.97;;;-3.79;79.07
59391;BME280;53405;57.012;40.984;2023-12-28T12:47:14;99402.59;;;-3.81;80.85
59391;BME280;53405;57.012;40.984;2023-12-28T12:49:41;99410.56;;;-3.45;79.77
59391;BME280;53405;57.012;40.984;2023-12-28T12:52:12;99375.09;;;-3.80;79.57
59391;BME280;53405;57.012;40.984;2023-12-28T12:54:40;99409.31;;;-3.52;79.74
59391;BME280;53405;57.012;40.984;2023-12-28T12:57:07;99412.50;;;-3.61;80.48
59391;BME280;53405;57.012;40.984;2023-12-28T12:59:35;99387.91;;;-3.40;78.43
59391;BME280;53405;57.012;40.984;2023-12-28T13:02:03;99402.50;;;-3.53;79.75
59391;BME280;53405;57.012;40.984;2023-12-28T13:04:31;99402.81;;;-3.58;79.57